createdAt,value
2022-10-21T00:00:13.393Z,100385.09
2022-10-21T00:02:40.421Z,100364.59
2022-10-21T00:05:07.512Z,100334.31
2022-10-21T00:07:34.705Z,100308.50
2022-10-21T00:10:01.266Z,100273.81
2022-10-21T00:12:28.915Z,100240.75
2022-10-21T00:14:57.211Z,100232.44
2022-10-21T00:17:23.895Z,100295.47
2022-10-21T00:19:50.363Z,100300.78
2022-10-21T00:22:16.754Z,100296.56
2022-10-21T00:24:43.116Z,100317.34
2022-10-21T00:27:09.515Z,100310.13
2022-10-21T00:29:36.013Z,100320.88
2022-10-21T00:32:02.425Z,100316.38
2022-10-21T00:34:30.985Z,100321.38
2022-10-21T00:36:58.072Z,100319.19
2022-10-21T00:39:24.540Z,100316.94
2022-10-21T00:41:50.964Z,100320.81
2022-10-21T00:44:17.324Z,100318.53
2022-10-21T00:46:50.116Z,100327.97
2022-10-21T00:49:24.223Z,100335.72
2022-10-21T00:51:55.871Z,100334.03
2022-10-21T00:54:23.732Z,100340.09
2022-10-21T00:59:25.037Z,100343.13
2022-10-21T01:01:51.604Z,100347.84
2022-10-21T01:04:18.318Z,100340.09
2022-10-21T01:06:46.489Z,100343.97
2022-10-21T01:09:14.606Z,100339.53
2022-10-21T01:11:46.373Z,100337.31
2022-10-21T01:14:37.445Z,100327.59
2022-10-21T01:17:44.792Z,100324.56
2022-10-21T01:20:30.652Z,100319.03
2022-10-21T01:23:28.853Z,100312.34
2022-10-21T01:26:20.771Z,100310.19
2022-10-21T01:29:10.246Z,100292.69
2022-10-21T01:31:44.184Z,100291.84
2022-10-21T01:34:21.150Z,100302.69
2022-10-21T01:36:56.983Z,100293.25
2022-10-21T01:39:27.682Z,100295.19
2022-10-21T01:42:06.586Z,100291.84
2022-10-21T01:44:53.272Z,100278.22
2022-10-21T01:47:24.903Z,100265.47
2022-10-21T01:49:54.089Z,100260.19
2022-10-21T01:52:21.473Z,100254.38
2022-10-21T01:55:09.062Z,100257.47
2022-10-21T01:57:41.292Z,100254.44
2022-10-21T02:00:09.158Z,100251.66
2022-10-21T02:02:40.481Z,100246.41
2022-10-21T02:05:15.884Z,100248.09
2022-10-21T02:07:42.666Z,100240.03
2022-10-21T02:10:09.728Z,100229.28
2022-10-21T02:12:39.736Z,100227.91
2022-10-21T02:15:09.417Z,100223.19
2022-10-21T02:17:39.942Z,100223.19
2022-10-21T02:20:09.506Z,100210.97
2022-10-21T02:22:37.910Z,100215.44
2022-10-21T02:25:17.520Z,100206.28
2022-10-21T02:27:44.594Z,100210.97
2022-10-21T02:30:11.118Z,100223.13
2022-10-21T02:32:56.297Z,100228.94
2022-10-21T02:35:55.385Z,100215.59
2022-10-21T02:38:33.450Z,100218.66
2022-10-21T02:41:06.056Z,100234.97
2022-10-21T02:43:36.821Z,100224.97
2022-10-21T02:46:08.969Z,100233.53
2022-10-21T02:48:38.285Z,100219.09
2022-10-21T02:51:07.523Z,100218.78
2022-10-21T02:53:34.536Z,100231.25
2022-10-21T02:56:01.248Z,100226.19
2022-10-21T02:58:27.721Z,100226.47
2022-10-21T03:00:54.220Z,100218.38
2022-10-21T03:03:21.199Z,100225.56
2022-10-21T03:05:47.913Z,100222.22
2022-10-21T03:08:14.812Z,100229.09
2022-10-21T03:10:41.248Z,100215.53
2022-10-21T03:13:07.688Z,100212.16
2022-10-21T03:15:34.143Z,100218.22
2022-10-21T03:18:00.607Z,100220.44
2022-10-21T03:20:27.021Z,100218.50
2022-10-21T03:22:53.419Z,100211.03
2022-10-21T03:25:19.793Z,100208.81
2022-10-21T03:27:46.186Z,100200.50
2022-10-21T03:30:12.561Z,100196.03
2022-10-21T03:32:39.229Z,100190.50
2022-10-21T03:35:06.363Z,100184.97
2022-10-21T03:37:32.849Z,100201.06
2022-10-21T03:39:59.317Z,100214.69
2022-10-21T03:42:27.621Z,100219.97
2022-10-21T03:44:54.028Z,100209.44
2022-10-21T03:47:20.394Z,100210.03
2022-10-21T03:49:46.805Z,100206.16
2022-10-21T03:52:13.326Z,100204.53
2022-10-21T03:54:39.723Z,100199.28
2022-10-21T03:57:06.104Z,100197.00
2022-10-21T03:59:32.545Z,100195.13
2022-10-21T04:01:59.010Z,100200.16
2022-10-21T04:04:25.586Z,100200.16
2022-10-21T04:06:51.991Z,100197.63
2022-10-21T04:09:18.567Z,100201.53
2022-10-21T04:11:45.126Z,100202.94
2022-10-21T04:14:14.580Z,100210.41
2022-10-21T04:16:42.153Z,100200.16
2022-10-21T04:19:09.021Z,100198.78
2022-10-21T04:21:35.409Z,100199.31
2022-10-21T04:24:02.004Z,100191.84
2022-10-21T04:26:28.376Z,100191.84
2022-10-21T04:28:54.777Z,100188.81
2022-10-21T04:31:21.172Z,100186.03
2022-10-21T04:33:47.951Z,100194.06
2022-10-21T04:36:14.448Z,100197.44
2022-10-21T04:38:40.902Z,100201.31
2022-10-21T04:41:07.336Z,100199.09
2022-10-21T04:43:33.790Z,100178.88
2022-10-21T04:46:00.248Z,100183.31
2022-10-21T04:48:26.658Z,100185.81
2022-10-21T04:50:53.609Z,100176.41
2022-10-21T04:53:21.663Z,100186.38
2022-10-21T04:55:52.354Z,100191.69
2022-10-21T04:58:21.873Z,100193.38
2022-10-21T05:00:49.918Z,100192.53
2022-10-21T05:03:16.741Z,100186.97
2022-10-21T05:05:43.233Z,100186.69
2022-10-21T05:08:11.597Z,100184.75
2022-10-21T05:10:38.358Z,100182.84
2022-10-21T05:13:05.960Z,100178.69
2022-10-21T05:15:33.585Z,100188.69
2022-10-21T05:18:00.457Z,100178.69
2022-10-21T05:20:26.838Z,100174.81
2022-10-21T05:22:53.605Z,100164.81
2022-10-21T05:25:21.062Z,100154.84
2022-10-21T05:27:48.848Z,100144.84
2022-10-21T05:30:15.486Z,100128.75
2022-10-21T05:32:42.189Z,100130.41
2022-10-21T05:35:08.942Z,100123.75
2022-10-21T05:37:35.355Z,100118.78
2022-10-21T05:40:02.060Z,100112.97
2022-10-21T05:42:28.469Z,100103.31
2022-10-21T05:44:54.922Z,100108.84
2022-10-21T05:47:21.448Z,100109.41
2022-10-21T05:49:47.833Z,100106.88
2022-10-21T05:52:14.256Z,100114.94
2022-10-21T05:54:40.618Z,100120.19
2022-10-21T05:57:06.964Z,100127.13
2022-10-21T05:59:33.383Z,100121.81
2022-10-21T06:01:59.792Z,100115.44
2022-10-21T06:04:26.291Z,100108.78
2022-10-21T06:06:52.722Z,100119.31
2022-10-21T06:09:19.166Z,100125.97
2022-10-21T06:11:45.663Z,100125.13
2022-10-21T06:14:12.090Z,100120.66
2022-10-21T06:16:38.494Z,100121.75
2022-10-21T06:19:04.892Z,100136.16
2022-10-21T06:21:31.357Z,100126.69
2022-10-21T06:23:57.735Z,100128.06
2022-10-21T06:26:24.465Z,100123.59
2022-10-21T06:28:50.871Z,100123.03
2022-10-21T06:31:21.465Z,100134.38
2022-10-21T06:33:47.909Z,100127.13
2022-10-21T06:36:14.756Z,100129.59
2022-10-21T06:38:41.571Z,100126.81
2022-10-21T06:41:13.071Z,100130.66
2022-10-21T06:43:41.328Z,100129.59
2022-10-21T06:46:10.463Z,100123.19
2022-10-21T06:48:37.148Z,100117.66
2022-10-21T06:51:06.679Z,100120.72
2022-10-21T06:53:38.122Z,100129.66
2022-10-21T06:56:08.040Z,100136.28
2022-10-21T06:58:36.208Z,100137.38
2022-10-21T07:01:21.335Z,100144.59
2022-10-21T07:03:56.914Z,100144.28
2022-10-21T07:06:23.421Z,100152.06
2022-10-21T07:08:57.820Z,100146.84
2022-10-21T07:11:25.962Z,100143.53
2022-10-21T07:13:52.425Z,100143.28
2022-10-21T07:16:27.179Z,100153.59
2022-10-21T07:18:55.244Z,100156.94
2022-10-21T07:21:24.290Z,100158.34
2022-10-21T07:23:52.730Z,100173.66
2022-10-21T07:26:21.773Z,100183.81
2022-10-21T07:28:48.626Z,100184.13
2022-10-21T07:31:16.335Z,100186.66
2022-10-21T07:33:42.870Z,100185.06
2022-10-21T07:36:11.046Z,100185.88
2022-10-21T07:38:37.594Z,100188.13
2022-10-21T07:41:05.246Z,100185.69
2022-10-21T07:43:32.003Z,100184.91
2022-10-21T07:46:01.858Z,100170.50
2022-10-21T07:48:30.907Z,100182.75
2022-10-21T07:51:04.735Z,100176.69
2022-10-21T07:53:31.161Z,100178.09
2022-10-21T07:56:05.540Z,100183.94
2022-10-21T07:58:32.105Z,100185.09
2022-10-21T08:01:02.801Z,100193.47
2022-10-21T08:03:29.373Z,100193.50
2022-10-21T08:05:56.587Z,100197.44
2022-10-21T08:08:23.926Z,100196.91
2022-10-21T08:10:51.880Z,100199.72
2022-10-21T08:13:18.789Z,100205.84
2022-10-21T08:15:49.557Z,100203.66
2022-10-21T08:18:17.344Z,100205.88
2022-10-21T08:20:45.251Z,100204.81
2022-10-21T08:23:13.268Z,100199.81
2022-10-21T08:25:39.859Z,100204.00
2022-10-21T08:28:06.883Z,100202.88
2022-10-21T08:30:33.355Z,100209.88
2022-10-21T08:32:59.921Z,100204.88
2022-10-21T08:35:30.760Z,100207.09
2022-10-21T08:37:57.273Z,100206.84
2022-10-21T08:40:23.877Z,100207.41
2022-10-21T08:42:50.332Z,100208.00
2022-10-21T08:45:43.921Z,100214.41
2022-10-21T08:48:15.876Z,100212.47
2022-10-21T08:50:49.087Z,100217.19
2022-10-21T08:53:22.677Z,100217.19
2022-10-21T08:55:49.195Z,100222.44
2022-10-21T08:58:23.720Z,100223.88
2022-10-21T09:01:05.703Z,100210.53
2022-10-21T09:03:58.131Z,100208.59
2022-10-21T09:06:34.859Z,100205.03
2022-10-21T09:09:05.345Z,100208.38
2022-10-21T09:11:50.610Z,100204.75
2022-10-21T09:14:54.336Z,100210.06
2022-10-21T09:17:35.929Z,100206.19
2022-10-21T09:20:02.362Z,100202.84
2022-10-21T09:23:07.545Z,100215.63
2022-10-21T09:25:44.037Z,100204.50
2022-10-21T09:28:14.556Z,100205.63
2022-10-21T09:30:42.711Z,100201.19
2022-10-21T09:33:19.620Z,100217.84
2022-10-21T09:35:54.406Z,100220.28
2022-10-21T09:38:26.627Z,100205.53
2022-10-21T09:40:59.938Z,100203.59
2022-10-21T09:43:27.193Z,100205.28
2022-10-21T09:45:53.882Z,100204.75
2022-10-21T09:48:20.269Z,100190.03
2022-10-21T09:50:56.221Z,100181.69
2022-10-21T09:53:29.055Z,100211.69
2022-10-21T09:56:12.876Z,100214.41
2022-10-21T09:58:39.215Z,100233.25
2022-10-21T10:01:06.367Z,100218.31
2022-10-21T10:03:35.632Z,100200.56
2022-10-21T10:06:04.140Z,100196.69
2022-10-21T10:08:33.564Z,100197.25
2022-10-21T10:11:09.244Z,100206.72
2022-10-21T10:13:37.316Z,100224.25
2022-10-21T10:16:29.171Z,100228.47
2022-10-21T10:19:19.778Z,100237.34
2022-10-21T10:21:51.295Z,100261.50
2022-10-21T10:24:19.788Z,100266.97
2022-10-21T10:26:47.480Z,100257.28
2022-10-21T10:29:28.569Z,100256.19
2022-10-21T10:31:58.390Z,100247.91
2022-10-21T10:34:36.067Z,100236.31
2022-10-21T10:37:17.469Z,100240.78
2022-10-21T10:39:47.947Z,100253.38
2022-10-21T10:42:24.098Z,100264.28
2022-10-21T10:45:00.830Z,100260.16
2022-10-21T10:47:42.965Z,100246.84
2022-10-21T10:50:38.371Z,100253.53
2022-10-21T10:53:34.544Z,100246.94
2022-10-21T10:56:13.529Z,100248.94
2022-10-21T10:58:46.909Z,100253.97
2022-10-21T11:01:22.669Z,100265.38
2022-10-21T11:03:57.507Z,100250.41
2022-10-21T11:06:43.581Z,100245.13
2022-10-21T11:09:10.382Z,100253.53
2022-10-21T11:11:41.078Z,100244.09
2022-10-21T11:14:16.300Z,100257.47
2022-10-21T11:17:09.167Z,100260.56
2022-10-21T11:19:58.238Z,100250.00
2022-10-21T11:22:43.425Z,100243.00
2022-10-21T11:25:18.505Z,100241.84
2022-10-21T11:28:03.717Z,100246.06
2022-10-21T11:30:45.708Z,100234.63
2022-10-21T11:33:37.742Z,100236.28
2022-10-21T11:36:12.195Z,100233.50
2022-10-21T11:39:28.479Z,100232.38
2022-10-21T11:42:01.224Z,100239.38
2022-10-21T11:44:33.550Z,100236.00
2022-10-21T11:47:11.865Z,100229.59
2022-10-21T11:49:45.859Z,100215.88
2022-10-21T11:52:50.042Z,100207.31
2022-10-21T11:55:35.002Z,100202.28
2022-10-21T11:58:15.989Z,100199.66
2022-10-21T12:00:48.178Z,100205.59
2022-10-21T12:03:43.773Z,100209.91
2022-10-21T12:06:24.397Z,100203.47
2022-10-21T12:08:58.406Z,100209.66
2022-10-21T12:11:34.035Z,100208.25
2022-10-21T12:14:17.762Z,100198.94
2022-10-21T12:16:46.725Z,100200.06
2022-10-21T12:19:13.945Z,100193.53
2022-10-21T12:21:44.725Z,100194.44
2022-10-21T12:24:11.097Z,100193.38
2022-10-21T12:27:17.972Z,100191.50
2022-10-21T12:30:00.547Z,100182.47
2022-10-21T12:32:41.543Z,100188.25
2022-10-21T12:35:14.039Z,100188.06
2022-10-21T12:37:43.360Z,100189.81
2022-10-21T12:40:33.190Z,100183.97
2022-10-21T12:43:05.722Z,100185.88
2022-10-21T12:45:38.114Z,100193.44
2022-10-21T12:48:31.355Z,100194.97
2022-10-21T12:51:01.446Z,100208.81
2022-10-21T12:53:30.985Z,100209.72
2022-10-21T12:56:00.162Z,100206.22
2022-10-21T12:58:36.661Z,100218.22
2022-10-21T13:01:05.901Z,100222.31
2022-10-21T13:03:51.113Z,100236.47
2022-10-21T13:06:51.534Z,100234.94
2022-10-21T13:09:40.283Z,100221.00
2022-10-21T13:12:09.403Z,100221.13
2022-10-21T13:14:44.236Z,100219.94
2022-10-21T13:17:22.669Z,100213.97
2022-10-21T13:19:54.599Z,100218.94
2022-10-21T13:22:41.895Z,100216.22
2022-10-21T13:25:28.496Z,100210.06
2022-10-21T13:28:05.749Z,100207.00
2022-10-21T13:30:34.943Z,100208.94
2022-10-21T13:33:06.674Z,100205.16
2022-10-21T13:35:53.995Z,100198.47
2022-10-21T13:38:33.230Z,100207.97
2022-10-21T13:41:01.981Z,100220.34
2022-10-21T13:43:37.065Z,100209.75
2022-10-21T13:46:26.699Z,100217.53
2022-10-21T13:48:53.995Z,100215.31
2022-10-21T13:51:32.005Z,100220.59
2022-10-21T13:54:10.003Z,100212.78
2022-10-21T13:56:38.299Z,100211.38
2022-10-21T13:59:06.227Z,100212.47
2022-10-21T14:01:48.095Z,100212.19
2022-10-21T14:04:24.677Z,100209.06
2022-10-21T14:06:53.959Z,100198.00
2022-10-21T14:09:30.677Z,100173.81
2022-10-21T14:12:00.617Z,100173.34
2022-10-21T14:14:29.381Z,100180.81
2022-10-21T14:17:01.712Z,100174.00
2022-10-21T14:19:34.368Z,100173.84
2022-10-21T14:22:01.848Z,100176.63
2022-10-21T14:24:39.057Z,100189.13
2022-10-21T14:27:06.982Z,100191.78
2022-10-21T14:29:36.023Z,100199.59
2022-10-21T14:32:04.397Z,100192.81
2022-10-21T14:34:35.997Z,100183.63
2022-10-21T14:37:21.417Z,100190.25
2022-10-21T14:39:47.819Z,100188.94
2022-10-21T14:42:18.014Z,100192.63
2022-10-21T14:44:45.510Z,100202.50
2022-10-21T14:47:18.762Z,100196.19
2022-10-21T14:49:51.308Z,100197.03
2022-10-21T14:52:42.981Z,100188.03
2022-10-21T14:55:13.633Z,100199.88
2022-10-21T14:57:48.304Z,100210.59
2022-10-21T15:00:29.049Z,100214.94
2022-10-21T15:02:58.124Z,100207.94
2022-10-21T15:05:32.731Z,100198.44
2022-10-21T15:08:20.714Z,100200.28
2022-10-21T15:11:09.858Z,100201.31
2022-10-21T15:13:36.245Z,100196.25
2022-10-21T15:16:03.969Z,100188.69
2022-10-21T15:18:40.091Z,100197.69
2022-10-21T15:21:25.331Z,100199.13
2022-10-21T15:23:57.646Z,100190.72
2022-10-21T15:26:29.387Z,100194.34
2022-10-21T15:28:56.513Z,100192.63
2022-10-21T15:31:28.016Z,100188.69
2022-10-21T15:33:56.763Z,100189.28
2022-10-21T15:36:26.468Z,100187.59
2022-10-21T15:38:54.638Z,100186.84
2022-10-21T15:41:23.836Z,100190.03
2022-10-21T15:43:56.135Z,100184.50
2022-10-21T15:46:24.653Z,100182.00
2022-10-21T15:48:51.058Z,100194.13
2022-10-21T15:51:17.486Z,100198.09
2022-10-21T15:53:44.668Z,100201.53
2022-10-21T15:56:16.281Z,100210.28
2022-10-21T15:58:43.283Z,100207.03
2022-10-21T16:01:15.300Z,100196.19
2022-10-21T16:03:42.395Z,100194.00
2022-10-21T16:06:15.711Z,100189.59
2022-10-21T16:08:42.196Z,100192.97
2022-10-21T16:11:13.174Z,100189.34
2022-10-21T16:13:39.605Z,100198.88
2022-10-21T16:16:20.587Z,100203.94
2022-10-21T16:18:48.036Z,100214.88
2022-10-21T16:21:16.019Z,100217.13
2022-10-21T16:23:43.059Z,100214.41
2022-10-21T16:26:16.558Z,100213.03
2022-10-21T16:28:43.109Z,100217.81
2022-10-21T16:31:12.931Z,100214.50
2022-10-21T16:33:40.216Z,100221.22
2022-10-21T16:36:24.282Z,100220.69
2022-10-21T16:38:52.266Z,100237.13
2022-10-21T16:41:21.150Z,100238.53
2022-10-21T16:43:48.090Z,100238.25
2022-10-21T16:46:42.655Z,100234.63
2022-10-21T16:49:14.734Z,100230.19
2022-10-21T16:51:45.990Z,100240.22
2022-10-21T16:54:13.527Z,100241.06
2022-10-21T16:56:40.434Z,100241.88
2022-10-21T16:59:07.258Z,100252.19
2022-10-21T17:01:34.090Z,100243.53
2022-10-21T17:04:00.655Z,100247.69
2022-10-21T17:06:27.097Z,100250.97
2022-10-21T17:08:55.005Z,100249.56
2022-10-21T17:11:31.947Z,100260.66
2022-10-21T17:13:59.757Z,100258.41
2022-10-21T17:16:26.157Z,100268.13
2022-10-21T17:18:52.637Z,100278.66
2022-10-21T17:21:25.107Z,100268.34
2022-10-21T17:23:52.165Z,100269.44
2022-10-21T17:26:19.326Z,100275.78
2022-10-21T17:28:46.655Z,100280.75
2022-10-21T17:31:17.289Z,100282.69
2022-10-21T17:33:44.577Z,100282.09
2022-10-21T17:36:12.672Z,100282.06
2022-10-21T17:38:39.696Z,100280.91
2022-10-21T17:41:06.115Z,100286.19
2022-10-21T17:43:32.586Z,100287.81
2022-10-21T17:45:59.073Z,100296.91
2022-10-21T17:48:25.970Z,100302.44
2022-10-21T17:51:01.088Z,100298.53
2022-10-21T17:53:30.870Z,100292.66
2022-10-21T17:56:06.070Z,100297.63
2022-10-21T17:58:33.360Z,100294.00
2022-10-21T18:01:00.314Z,100292.59
2022-10-21T18:03:28.788Z,100303.41
2022-10-21T18:05:56.223Z,100305.03
2022-10-21T18:08:23.823Z,100301.09
2022-10-21T18:10:58.220Z,100303.56
2022-10-21T18:13:27.196Z,100302.16
2022-10-21T18:15:54.450Z,100305.47
2022-10-21T18:18:22.918Z,100312.09
2022-10-21T18:20:49.301Z,100317.34
2022-10-21T18:23:16.132Z,100309.00
2022-10-21T18:25:42.740Z,100315.88
2022-10-21T18:28:09.485Z,100299.19
2022-10-21T18:30:41.682Z,100306.38
2022-10-21T18:33:08.159Z,100314.63
2022-10-21T18:35:34.652Z,100304.06
2022-10-21T18:38:01.059Z,100294.56
2022-10-21T18:40:28.147Z,100299.28
2022-10-21T18:42:54.783Z,100295.13
2022-10-21T18:45:21.325Z,100296.19
2022-10-21T18:47:49.800Z,100294.53
2022-10-21T18:50:16.533Z,100279.22
2022-10-21T18:52:43.066Z,100284.47
2022-10-21T18:55:09.674Z,100273.06
2022-10-21T18:57:36.106Z,100272.75
2022-10-21T19:00:04.330Z,100264.94
2022-10-21T19:02:30.721Z,100274.66
2022-10-21T19:04:59.735Z,100281.53
2022-10-21T19:07:28.484Z,100282.97
2022-10-21T19:09:54.901Z,100280.75
2022-10-21T19:12:23.575Z,100283.28
2022-10-21T19:14:50.401Z,100281.06
2022-10-21T19:17:16.907Z,100282.47
2022-10-21T19:19:43.371Z,100281.13
2022-10-21T19:22:09.836Z,100290.03
2022-10-21T19:24:36.249Z,100300.88
2022-10-21T19:27:02.637Z,100307.84
2022-10-21T19:29:29.218Z,100306.16
2022-10-21T19:31:56.802Z,100313.66
2022-10-21T19:34:26.210Z,100316.09
2022-10-21T19:36:53.086Z,100316.63
2022-10-21T19:39:19.756Z,100310.75
2022-10-21T19:41:46.970Z,100314.31
2022-10-21T19:44:13.450Z,100318.69
2022-10-21T19:46:39.957Z,100328.09
2022-10-21T19:49:08.369Z,100341.97
2022-10-21T19:51:35.788Z,100337.25
2022-10-21T19:54:06.789Z,100347.25
2022-10-21T19:56:34.469Z,100343.06
2022-10-21T19:59:02.582Z,100362.22
2022-10-21T20:01:30.045Z,100352.22
2022-10-21T20:03:56.915Z,100351.38
2022-10-21T20:06:26.554Z,100345.28
2022-10-21T20:08:55.054Z,100337.78
2022-10-21T20:11:22.323Z,100343.59
2022-10-21T20:13:49.771Z,100335.81
2022-10-21T20:16:19.624Z,100325.56
2022-10-21T20:18:46.077Z,100336.66
2022-10-21T20:21:12.966Z,100340.88
2022-10-21T20:23:39.646Z,100333.75
2022-10-21T20:26:06.686Z,100330.16
2022-10-21T20:28:33.989Z,100328.84
2022-10-21T20:31:03.483Z,100323.31
2022-10-21T20:33:32.639Z,100330.88
2022-10-21T20:36:05.834Z,100333.97
2022-10-21T20:38:33.283Z,100328.16
2022-10-21T20:41:02.860Z,100329.56
2022-10-21T20:43:29.867Z,100334.03
2022-10-21T20:45:56.279Z,100338.47
2022-10-21T20:48:22.712Z,100345.69
2022-10-21T20:50:49.141Z,100340.44
2022-10-21T20:53:15.600Z,100342.38
2022-10-21T20:55:42.811Z,100349.53
2022-10-21T20:58:09.230Z,100346.44
2022-10-21T21:00:37.340Z,100351.06
2022-10-21T21:03:03.817Z,100361.03
2022-10-21T21:05:30.598Z,100371.78
2022-10-21T21:07:57.405Z,100392.59
2022-10-21T21:10:23.839Z,100390.06
2022-10-21T21:12:50.346Z,100391.19
2022-10-21T21:15:16.906Z,100390.59
2022-10-21T21:17:43.296Z,100374.19
2022-10-21T21:20:10.181Z,100387.44
2022-10-21T21:22:37.838Z,100385.19
2022-10-21T21:25:05.170Z,100382.66
2022-10-21T21:27:32.124Z,100364.63
2022-10-21T21:29:58.748Z,100360.75
2022-10-21T21:32:25.215Z,100343.00
2022-10-21T21:34:55.344Z,100336.94
2022-10-21T21:37:23.451Z,100339.19
2022-10-21T21:39:49.958Z,100349.22
2022-10-21T21:42:16.466Z,100344.25
2022-10-21T21:44:42.908Z,100337.34
2022-10-21T21:47:09.653Z,100334.31
2022-10-21T21:49:36.069Z,100341.56
2022-10-21T21:52:02.501Z,100344.88
2022-10-21T21:54:29.141Z,100332.94
2022-10-21T21:57:16.043Z,100330.47
2022-10-21T21:59:41.986Z,100338.19
2022-10-21T22:02:09.103Z,100330.47
2022-10-21T22:04:36.102Z,100329.00
2022-10-21T22:07:03.116Z,100328.75
2022-10-21T22:09:29.621Z,100324.06
2022-10-21T22:11:56.005Z,100331.00
2022-10-21T22:14:22.420Z,100337.16
2022-10-21T22:16:48.870Z,100342.72
2022-10-21T22:19:15.291Z,100331.63
2022-10-21T22:21:41.672Z,100333.25
2022-10-21T22:24:08.047Z,100343.28
2022-10-21T22:26:34.898Z,100352.44
2022-10-21T22:29:01.332Z,100359.38
2022-10-21T22:31:30.543Z,100359.28
2022-10-21T22:34:06.509Z,100371.16
2022-10-21T22:36:35.708Z,100361.06
2022-10-21T22:39:03.456Z,100355.19
2022-10-21T22:41:29.861Z,100358.50
2022-10-21T22:43:56.350Z,100344.31
2022-10-21T22:46:34.724Z,100339.25
2022-10-21T22:49:03.448Z,100338.94
2022-10-21T22:51:29.893Z,100333.91
2022-10-21T22:53:56.837Z,100331.66
2022-10-21T22:56:27.773Z,100334.41
2022-10-21T22:58:54.220Z,100328.88
2022-10-21T23:01:20.991Z,100345.00
2022-10-21T23:03:47.380Z,100355.56
2022-10-21T23:06:13.897Z,100347.84
2022-10-21T23:08:40.383Z,100343.13
2022-10-21T23:11:06.849Z,100349.53
2022-10-21T23:13:33.294Z,100352.88
2022-10-21T23:15:59.653Z,100341.78
2022-10-21T23:18:26.161Z,100342.88
2022-10-21T23:20:52.733Z,100348.41
2022-10-21T23:23:19.156Z,100341.22
2022-10-21T23:25:45.598Z,100350.03
2022-10-21T23:28:12.007Z,100356.09
2022-10-21T23:30:38.650Z,100362.16
2022-10-21T23:33:05.109Z,100379.56
2022-10-21T23:35:32.328Z,100379.84
2022-10-21T23:37:59.413Z,100385.63
2022-10-21T23:40:26.247Z,100385.88
2022-10-21T23:42:52.662Z,100390.84
2022-10-21T23:45:19.299Z,100389.44
2022-10-21T23:47:45.756Z,100397.13
2022-10-21T23:50:12.471Z,100401.84
2022-10-21T23:52:39.355Z,100406.81
2022-10-21T23:55:06.893Z,100416.81
2022-10-21T23:57:33.366Z,100421.53
2022-10-21T23:59:59.847Z,100416.81
